Time;durP1;ratioP1;P1;durP2;ratioP2;P2;SDS_P1;SDS_P2;PMS_P1;PMS_P2;Temp;Humidity;BMP_temperature;BMP_pressure;BME280_temperature;BME280_humidity;BME280_pressure;Samples;Min_cycle;Max_cycle;Signal;HPM_P1;HPM_P2
2021/09/30 00:01:59;;;;;;;2.83;0.73;;;;;;;10.09;75.46;101325.03;5002204;28;20065;-78
2021/09/30 00:04:24;;;;;;;2.67;0.60;;;;;;;10.08;75.34;101322.38;5006283;28;20041;-78
2021/09/30 00:06:49;;;;;;;2.38;0.77;;;;;;;10.06;75.28;101327.66;5005302;28;20061;-78
2021/09/30 00:09:16;;;;;;;3.10;0.60;;;;;;;10.05;75.57;101322.34;5002847;28;20074;-78
2021/09/30 00:11:45;;;;;;;1.42;0.52;;;;;;;10.02;75.53;101336.41;5016538;28;20248;-78
2021/09/30 00:46:58;;;;;;;2.03;0.50;;;;;;;9.55;75.79;101351.75;5002800;28;20440;-78
2021/09/30 00:49:39;;;;;;;1.98;0.50;;;;;;;9.52;75.57;101344.69;5001608;28;20603;-78
2021/09/30 00:52:16;;;;;;;4.07;0.68;;;;;;;9.57;75.41;101339.47;4985287;28;20044;-78
2021/09/30 01:18:20;;;;;;;3.13;0.80;;;;;;;9.60;74.82;101350.03;5007517;28;20042;-78
2021/09/30 01:21:06;;;;;;;2.47;0.85;;;;;;;9.83;73.42;101358.19;5000639;28;20580;-78
2021/09/30 01:32:47;;;;;;;2.50;0.73;;;;;;;9.80;72.83;101371.34;4999921;28;20488;-78
2021/09/30 02:19:03;;;;;;;2.88;0.70;;;;;;;9.87;71.84;101410.06;4999820;28;20030;-76
2021/09/30 02:21:56;;;;;;;2.22;0.90;;;;;;;9.85;72.42;101414.44;5001138;28;20038;-76
2021/09/30 02:24:52;;;;;;;2.90;1.00;;;;;;;9.87;73.28;101416.22;5019248;28;20037;-76
2021/09/30 02:58:41;;;;;;;6.70;1.92;;;;;;;9.86;71.81;101442.59;4980591;28;20041;-76
2021/09/30 03:01:14;;;;;;;5.90;1.48;;;;;;;9.90;71.89;101448.78;4991179;28;20052;-76
2021/09/30 03:03:44;;;;;;;6.47;1.33;;;;;;;9.92;71.47;101449.69;5012523;28;20038;-76
2021/09/30 03:06:09;;;;;;;4.05;1.20;;;;;;;9.90;71.44;101456.69;5015659;28;20641;-76
2021/09/30 03:08:42;;;;;;;4.03;1.00;;;;;;;9.84;72.01;101460.16;4987461;28;20029;-76
2021/09/30 03:11:08;;;;;;;4.68;0.93;;;;;;;9.76;71.80;101452.16;5000067;28;20436;-76
2021/09/30 03:13:35;;;;;;;3.63;1.08;;;;;;;9.64;72.35;101468.72;5008845;28;20121;-77
2021/09/30 03:16:09;;;;;;;4.05;1.13;;;;;;;9.68;72.29;101479.28;5004253;28;20029;-76
2021/09/30 03:19:20;;;;;;;1.73;0.80;;;;;;;9.62;72.24;101474.81;5036757;28;20349;-76
2021/09/30 03:24:15;;;;;;;3.85;1.00;;;;;;;9.51;72.55;101477.31;5001395;28;20381;-76
2021/09/30 03:26:42;;;;;;;4.22;0.80;;;;;;;9.46;72.91;101472.84;5017891;28;20445;-76
2021/09/30 03:29:08;;;;;;;2.75;0.88;;;;;;;9.44;72.83;101480.72;5005060;28;20045;-76
2021/09/30 03:31:34;;;;;;;3.25;0.80;;;;;;;9.43;72.79;101486.84;5001824;28;20031;-76
2021/09/30 03:34:28;;;;;;;2.55;0.77;;;;;;;9.40;73.14;101481.53;5005216;28;20520;-76
2021/09/30 03:36:54;;;;;;;3.28;1.25;;;;;;;9.41;73.01;101484.22;5001766;28;20040;-76
2021/09/30 03:39:25;;;;;;;7.05;1.35;;;;;;;9.40;73.61;101492.09;5024140;28;20033;-76
2021/09/30 03:41:52;;;;;;;3.13;1.08;;;;;;;9.41;73.20;101485.97;5036903;28;20129;-76
2021/09/30 03:44:21;;;;;;;3.30;0.90;;;;;;;9.41;73.37;101491.25;5004093;28;20042;-76
2021/09/30 03:46:51;;;;;;;2.70;1.25;;;;;;;9.38;72.86;101492.06;5012785;28;20037;-76
2021/09/30 03:49:36;;;;;;;3.67;1.10;;;;;;;9.40;73.12;101490.31;5002537;28;20061;-76
2021/09/30 03:52:17;;;;;;;3.60;0.82;;;;;;;9.34;73.31;101492.88;5003532;28;20561;-76
2021/09/30 03:59:45;;;;;;;2.63;1.00;;;;;;;9.33;73.33;101487.63;5017420;28;20026;-76
2021/09/30 04:02:20;;;;;;;3.78;0.98;;;;;;;9.27;73.48;101491.00;5001555;28;20113;-76
2021/09/30 04:04:47;;;;;;;2.22;0.70;;;;;;;9.30;73.55;101487.53;5006144;28;20180;-76
2021/09/30 04:07:12;;;;;;;4.75;1.17;;;;;;;9.22;73.63;101487.44;5014255;28;20439;-76
2021/09/30 04:09:39;;;;;;;2.55;0.90;;;;;;;9.23;73.95;101483.94;5002091;28;20109;-76
2021/09/30 04:12:08;;;;;;;3.20;0.85;;;;;;;9.24;73.45;101488.34;5000732;28;20409;-76
2021/09/30 04:14:34;;;;;;;3.47;0.90;;;;;;;9.18;74.29;101494.41;5020617;28;20065;-76
2021/09/30 04:17:00;;;;;;;3.72;0.80;;;;;;;9.12;74.26;101499.59;5033541;28;20076;-76
2021/09/30 04:19:26;;;;;;;4.07;1.05;;;;;;;9.10;74.66;101498.69;5016597;28;20031;-76
2021/09/30 04:21:53;;;;;;;2.38;0.80;;;;;;;9.10;74.09;101488.16;5003509;28;20037;-76
2021/09/30 04:24:20;;;;;;;3.10;0.85;;;;;;;9.12;74.44;101494.34;5000797;28;20124;-76
2021/09/30 04:26:50;;;;;;;4.93;1.52;;;;;;;9.09;73.91;101502.19;5000159;28;20038;-77
2021/09/30 04:29:16;;;;;;;5.60;1.88;;;;;;;9.12;74.55;101503.97;4995262;28;20034;-76
2021/09/30 04:31:43;;;;;;;7.90;2.60;;;;;;;9.07;74.42;101517.06;5001034;28;20038;-76
2021/09/30 04:34:09;;;;;;;6.72;2.75;;;;;;;9.06;74.79;101520.53;5015656;28;20041;-76
2021/09/30 04:36:34;;;;;;;10.15;3.33;;;;;;;9.08;74.30;101523.22;5003816;28;20034;-76
2021/09/30 04:39:00;;;;;;;7.07;3.03;;;;;;;9.05;74.46;101523.19;5001901;28;20404;-76
2021/09/30 04:41:26;;;;;;;7.10;2.70;;;;;;;9.05;74.05;101524.06;5014871;28;20027;-76
2021/09/30 04:43:52;;;;;;;5.90;2.85;;;;;;;9.06;74.15;101528.44;5008126;28;20037;-76
2021/09/30 04:46:20;;;;;;;6.28;2.58;;;;;;;9.05;74.61;101533.72;5002589;28;20068;-76
2021/09/30 04:49:02;;;;;;;5.65;2.05;;;;;;;8.98;74.88;101524.81;5036273;28;20033;-76
2021/09/30 04:51:27;;;;;;;6.60;2.15;;;;;;;8.95;74.95;101530.03;5000714;28;20030;-76
2021/09/30 04:53:52;;;;;;;5.32;1.52;;;;;;;8.95;74.77;101530.91;5015433;28;20468;-76
2021/09/30 04:56:18;;;;;;;8.05;1.42;;;;;;;8.96;74.61;101534.41;5003363;28;20057;-76
2021/09/30 04:58:48;;;;;;;6.55;2.22;;;;;;;8.95;74.78;101545.81;5000923;28;20128;-76
2021/09/30 05:01:13;;;;;;;3.35;1.17;;;;;;;8.92;74.82;101545.78;5015084;28;20073;-76
2021/09/30 05:03:46;;;;;;;7.45;1.55;;;;;;;8.88;75.14;101543.94;5035511;28;20033;-75
2021/09/30 05:06:12;;;;;;;4.30;1.83;;;;;;;8.89;75.36;101538.72;5004680;28;20045;-76
2021/09/30 05:08:39;;;;;;;4.40;1.98;;;;;;;8.87;75.40;101539.56;4984835;28;20034;-76
2021/09/30 05:11:05;;;;;;;4.90;1.90;;;;;;;8.86;75.36;101543.94;5014840;28;20029;-76
2021/09/30 05:13:41;;;;;;;4.75;2.00;;;;;;;8.86;75.60;101545.69;5008127;28;20492;-76
2021/09/30 05:16:10;;;;;;;5.32;2.50;;;;;;;8.85;75.49;101546.53;5000236;28;20408;-76
2021/09/30 05:18:56;;;;;;;5.00;2.25;;;;;;;8.88;75.41;101551.84;5001022;28;20413;-75
2021/09/30 05:21:24;;;;;;;5.03;1.67;;;;;;;8.92;75.31;101554.56;5001143;28;20038;-76
2021/09/30 05:23:51;;;;;;;4.18;1.63;;;;;;;8.97;75.11;101557.28;5013625;28;20034;-76
2021/09/30 05:26:17;;;;;;;4.60;1.52;;;;;;;8.95;75.12;101553.72;5002847;28;20034;-76
2021/09/30 05:28:43;;;;;;;4.82;1.50;;;;;;;9.01;75.29;101556.44;5001815;28;20444;-76
2021/09/30 05:31:09;;;;;;;3.90;1.10;;;;;;;9.03;75.00;101562.63;5015267;28;20049;-76
2021/09/30 05:34:04;;;;;;;5.32;1.52;;;;;;;9.02;74.51;101565.25;5000750;28;20042;-76
2021/09/30 05:36:29;;;;;;;5.50;1.38;;;;;;;9.04;75.04;101560.88;5002706;28;20064;-76
2021/09/30 05:38:55;;;;;;;4.05;1.10;;;;;;;9.05;75.39;101566.19;5011912;28;20034;-76
2021/09/30 05:41:21;;;;;;;4.05;1.60;;;;;;;9.08;74.85;101571.50;5015504;28;20073;-76
2021/09/30 05:43:53;;;;;;;5.57;1.30;;;;;;;9.11;75.05;101570.66;5034979;28;20029;-76
2021/09/30 05:46:23;;;;;;;4.47;1.00;;;;;;;9.08;75.03;101568.88;5002910;28;20038;-76
2021/09/30 05:48:48;;;;;;;5.07;0.90;;;;;;;9.13;74.90;101561.06;5015449;28;20718;-76
2021/09/30 05:51:14;;;;;;;4.90;1.25;;;;;;;9.16;73.92;101564.59;5003426;28;20062;-76
2021/09/30 05:54:03;;;;;;;2.95;1.00;;;;;;;9.24;74.51;101572.63;4988126;28;20044;-76
2021/09/30 05:56:36;;;;;;;4.05;0.90;;;;;;;9.29;74.21;101572.72;5005564;28;20050;-76
2021/09/30 05:59:01;;;;;;;5.93;0.95;;;;;;;9.31;74.44;101578.91;5012499;28;20377;-76
2021/09/30 06:01:45;;;;;;;2.97;0.95;;;;;;;9.38;73.85;101581.66;5010728;28;20034;-75
2021/09/30 06:09:12;;;;;;;4.13;1.00;;;;;;;9.53;73.46;101574.84;4999784;28;20034;-76
2021/09/30 06:12:35;;;;;;;3.17;1.00;;;;;;;9.61;72.92;101579.34;4966499;28;20511;-76
2021/09/30 06:15:02;;;;;;;2.50;1.00;;;;;;;9.65;73.11;101591.72;5015599;28;20493;-77
2021/09/30 06:17:30;;;;;;;5.10;0.85;;;;;;;9.74;73.02;101595.34;5003506;28;20381;-76
2021/09/30 06:19:55;;;;;;;3.50;0.95;;;;;;;9.80;72.55;101587.53;5011933;28;20038;-76
2021/09/30 06:22:21;;;;;;;3.33;0.90;;;;;;;9.89;72.39;101582.38;5002241;28;20095;-76
2021/09/30 06:24:47;;;;;;;3.42;0.93;;;;;;;9.89;72.24;101587.66;5014656;28;20542;-76
2021/09/30 06:27:12;;;;;;;4.95;1.00;;;;;;;9.88;72.18;101588.53;5002170;28;20029;-77
2021/09/30 06:29:38;;;;;;;3.45;0.98;;;;;;;10.01;72.12;101594.84;4999149;28;20193;-76
2021/09/30 06:32:04;;;;;;;2.40;0.85;;;;;;;10.04;71.77;101600.16;5014300;28;20045;-76
2021/09/30 06:34:29;;;;;;;4.40;0.80;;;;;;;10.09;71.50;101588.81;5001752;28;20038;-77
2021/09/30 06:37:09;;;;;;;2.55;0.90;;;;;;;10.16;71.80;101597.66;4998591;28;20045;-76
2021/09/30 06:39:37;;;;;;;3.25;1.75;;;;;;;10.24;71.19;101598.66;4998400;28;20122;-76
2021/09/30 06:42:03;;;;;;;6.10;1.60;;;;;;;10.27;71.29;101598.75;5001746;28;20031;-76
2021/09/30 06:44:49;;;;;;;2.05;0.73;;;;;;;10.37;70.89;101602.34;4982315;28;20141;-76
2021/09/30 06:47:37;;;;;;;4.53;1.25;;;;;;;10.40;71.24;101606.78;5004349;28;20077;-77
2021/09/30 06:50:14;;;;;;;5.55;1.90;;;;;;;10.36;70.80;101615.53;5003939;28;20034;-76
2021/09/30 06:52:59;;;;;;;5.78;1.75;;;;;;;10.46;70.28;101615.66;5010721;28;20121;-76
2021/09/30 06:56:05;;;;;;;4.97;1.67;;;;;;;10.60;70.62;101617.56;5018625;28;20113;-76
2021/09/30 06:58:51;;;;;;;5.25;1.30;;;;;;;10.70;70.09;101625.63;5003415;28;20045;-76
2021/09/30 07:01:38;;;;;;;3.90;1.27;;;;;;;10.75;69.98;101628.31;5005322;28;20519;-76
2021/09/30 07:04:21;;;;;;;3.58;1.02;;;;;;;10.83;69.66;101637.19;5003987;28;20093;-76
2021/09/30 07:07:04;;;;;;;4.38;1.25;;;;;;;10.89;69.18;101634.59;5003116;28;20088;-78
2021/09/30 07:09:30;;;;;;;4.68;1.33;;;;;;;11.01;69.62;101641.78;5017879;28;20026;-78
2021/09/30 07:11:57;;;;;;;3.38;1.48;;;;;;;11.05;69.66;101637.41;5006080;28;20543;-78
2021/09/30 07:14:23;;;;;;;3.78;1.20;;;;;;;11.12;69.45;101636.59;5005425;28;20125;-78
2021/09/30 07:16:48;;;;;;;2.63;1.02;;;;;;;11.13;68.77;101649.84;5009869;28;20104;-77
2021/09/30 07:19:14;;;;;;;10.75;1.90;;;;;;;11.21;68.12;101643.72;5005428;28;20045;-78
2021/09/30 07:21:39;;;;;;;5.68;1.70;;;;;;;11.26;68.10;101642.00;5015706;28;20132;-78
2021/09/30 07:24:05;;;;;;;4.35;1.35;;;;;;;11.37;67.54;101646.53;5005683;28;20038;-78
2021/09/30 07:26:30;;;;;;;2.72;0.80;;;;;;;11.35;67.62;101642.97;5006264;28;20045;-77
2021/09/30 07:28:56;;;;;;;3.83;0.90;;;;;;;11.42;67.98;101649.19;5002610;28;20034;-78
2021/09/30 07:31:21;;;;;;;3.90;0.98;;;;;;;11.55;68.30;101647.53;5017863;28;20112;-78
2021/09/30 07:33:46;;;;;;;5.68;1.00;;;;;;;11.56;67.85;101647.53;5005723;28;20048;-78
2021/09/30 07:36:13;;;;;;;5.00;1.08;;;;;;;11.63;66.83;101646.72;5003496;28;20060;-77
2021/09/30 07:38:39;;;;;;;4.47;1.20;;;;;;;11.67;66.77;101649.38;5017014;28;20042;-78
2021/09/30 07:41:05;;;;;;;1.52;0.80;;;;;;;11.72;66.85;101648.53;5004765;28;20042;-77
2021/09/30 07:43:30;;;;;;;3.53;1.15;;;;;;;11.81;67.37;101645.94;5003959;28;20041;-78
2021/09/30 07:45:56;;;;;;;4.20;1.20;;;;;;;11.85;66.22;101657.44;5003935;28;20038;-79
2021/09/30 07:48:21;;;;;;;2.80;0.80;;;;;;;11.93;65.79;101649.59;5004885;28;20042;-78
2021/09/30 07:50:47;;;;;;;5.47;1.25;;;;;;;11.95;65.92;101648.72;5006401;28;20045;-78
2021/09/30 07:53:14;;;;;;;5.47;1.17;;;;;;;11.95;66.29;101656.66;5001896;28;20037;-77
2021/09/30 07:55:40;;;;;;;4.93;1.23;;;;;;;12.07;66.08;101661.13;5005227;28;20044;-78
2021/09/30 07:58:09;;;;;;;5.20;1.33;;;;;;;12.11;65.01;101655.00;5002566;28;20392;-78
2021/09/30 08:00:35;;;;;;;3.75;1.45;;;;;;;12.05;64.85;101662.88;5005437;28;20092;-78
2021/09/30 08:03:00;;;;;;;7.20;1.38;;;;;;;12.18;65.94;101659.44;5002065;28;20069;-78
2021/09/30 08:05:26;;;;;;;4.93;1.17;;;;;;;12.30;64.27;101663.03;5005642;28;20518;-78
2021/09/30 08:07:51;;;;;;;4.93;1.50;;;;;;;12.38;66.02;101658.66;5000911;28;20386;-78
2021/09/30 08:10:16;;;;;;;5.18;1.40;;;;;;;12.45;64.59;101660.44;5004911;28;20459;-78
2021/09/30 08:12:42;;;;;;;4.82;1.67;;;;;;;12.53;64.49;101664.00;5002720;28;20481;-78
2021/09/30 08:15:07;;;;;;;5.38;1.73;;;;;;;12.60;64.58;101655.22;5004321;28;20405;-78
2021/09/30 08:17:33;;;;;;;4.70;1.52;;;;;;;12.69;64.35;101667.59;5003576;28;20034;-78
2021/09/30 08:19:58;;;;;;;5.07;1.20;;;;;;;12.76;63.72;101660.53;5003562;28;20046;-78
2021/09/30 08:22:23;;;;;;;2.95;0.93;;;;;;;12.74;63.10;101665.84;5004106;28;20030;-78
2021/09/30 08:24:49;;;;;;;10.38;1.33;;;;;;;12.74;63.24;101681.75;5014123;28;20046;-78
2021/09/30 08:27:14;;;;;;;4.82;1.75;;;;;;;12.71;62.89;101679.97;5004095;28;20089;-78
2021/09/30 08:29:39;;;;;;;4.63;1.00;;;;;;;12.78;62.97;101674.69;5005155;28;20404;-78
2021/09/30 08:32:05;;;;;;;4.65;0.95;;;;;;;12.79;62.43;101684.41;5013364;28;20150;-78
2021/09/30 08:34:31;;;;;;;4.65;1.85;;;;;;;12.75;63.40;101670.25;5001422;28;20135;-78
2021/09/30 08:36:57;;;;;;;4.40;1.33;;;;;;;12.86;63.66;101673.84;5016663;28;20504;-78
2021/09/30 08:39:22;;;;;;;3.55;0.80;;;;;;;12.94;62.84;101679.13;5004425;28;20050;-78
2021/09/30 08:41:47;;;;;;;4.95;1.13;;;;;;;12.91;62.26;101676.47;5001292;28;20045;-78
2021/09/30 08:44:13;;;;;;;4.38;1.05;;;;;;;12.94;63.62;101682.69;5003321;28;20026;-79
2021/09/30 08:46:38;;;;;;;4.70;1.10;;;;;;;13.06;63.14;101692.41;5003194;28;20041;-79
2021/09/30 08:49:04;;;;;;;7.07;1.83;;;;;;;13.08;62.53;101687.13;5003646;28;20037;-77
2021/09/30 08:51:30;;;;;;;1.95;0.90;;;;;;;13.09;62.46;101686.25;5002427;28;20125;-77
2021/09/30 08:53:55;;;;;;;3.95;1.30;;;;;;;13.19;62.63;101711.88;5001897;28;20117;-77
2021/09/30 08:56:20;;;;;;;5.43;1.30;;;;;;;13.14;61.79;101688.00;5004126;28;20496;-76
2021/09/30 08:58:47;;;;;;;5.63;1.20;;;;;;;13.20;61.96;101702.16;5001390;28;20062;-77
2021/09/30 09:01:13;;;;;;;6.32;1.15;;;;;;;13.31;62.51;101688.09;5003346;28;20496;-77
2021/09/30 09:03:42;;;;;;;3.67;1.00;;;;;;;13.35;62.11;101691.63;5000895;28;20069;-76
2021/09/30 09:06:10;;;;;;;4.65;1.10;;;;;;;13.33;61.80;101688.06;5004389;28;20042;-77
2021/09/30 09:08:36;;;;;;;5.80;1.70;;;;;;;13.48;62.17;101687.22;5000672;28;20125;-77
2021/09/30 09:11:04;;;;;;;13.88;3.88;;;;;;;13.69;63.44;101681.88;5015893;28;20476;-77
2021/09/30 09:13:29;;;;;;;5.50;1.63;;;;;;;13.78;61.43;101687.22;5004179;28;20034;-77
2021/09/30 09:15:58;;;;;;;5.45;1.23;;;;;;;13.87;60.70;101688.94;5001244;28;20386;-77
2021/09/30 09:18:28;;;;;;;4.97;1.20;;;;;;;13.90;60.40;101696.91;5003998;28;20042;-77
2021/09/30 09:21:12;;;;;;;5.35;1.20;;;;;;;13.81;60.03;101694.28;5000711;28;20038;-77
2021/09/30 09:23:56;;;;;;;5.88;1.48;;;;;;;13.83;60.49;101697.78;5002296;28;20030;-76
2021/09/30 09:26:27;;;;;;;6.07;1.10;;;;;;;13.91;60.76;101701.34;5000741;28;20121;-77
2021/09/30 09:29:09;;;;;;;6.70;1.42;;;;;;;14.01;60.53;101694.22;5001071;28;20038;-77
2021/09/30 09:31:49;;;;;;;4.40;1.17;;;;;;;14.15;59.39;101691.56;5001890;28;20535;-77
2021/09/30 09:34:21;;;;;;;4.05;1.08;;;;;;;14.20;59.84;101695.06;5000366;28;20081;-77
2021/09/30 09:36:49;;;;;;;3.67;1.02;;;;;;;14.30;60.28;101691.50;5001213;28;20132;-77
2021/09/30 09:39:15;;;;;;;2.78;0.90;;;;;;;14.33;60.10;101701.22;5003430;28;20092;-77
2021/09/30 09:41:41;;;;;;;3.72;1.27;;;;;;;14.30;60.18;101704.78;5031921;28;20133;-77
2021/09/30 09:44:07;;;;;;;5.85;1.30;;;;;;;14.37;60.14;101693.25;5007030;28;20108;-77
2021/09/30 09:46:35;;;;;;;2.55;1.15;;;;;;;14.40;60.54;101697.69;5000293;28;20040;-77
2021/09/30 09:49:05;;;;;;;4.47;0.90;;;;;;;14.39;59.73;101701.22;5000325;28;20026;-77
2021/09/30 09:51:59;;;;;;;5.07;1.15;;;;;;;14.46;60.03;101705.63;5000231;28;20056;-77
2021/09/30 09:54:29;;;;;;;6.82;1.83;;;;;;;14.63;59.53;101705.59;4997834;28;20045;-77
2021/09/30 09:57:09;;;;;;;4.20;1.45;;;;;;;14.85;58.26;101696.63;5002689;28;20053;-77
2021/09/30 09:59:40;;;;;;;5.97;1.63;;;;;;;15.07;58.25;101691.19;5001308;28;20062;-76
2021/09/30 10:02:06;;;;;;;3.92;1.20;;;;;;;15.19;57.44;101696.41;5002061;28;20030;-77
2021/09/30 10:04:31;;;;;;;3.80;1.17;;;;;;;15.12;57.10;101692.94;5000945;28;20034;-77
2021/09/30 10:06:57;;;;;;;6.57;1.10;;;;;;;15.02;56.25;101693.00;5002488;28;20092;-77
2021/09/30 10:09:23;;;;;;;4.57;0.75;;;;;;;15.01;56.87;101708.09;5000724;28;20038;-77
2021/09/30 10:11:48;;;;;;;3.55;1.05;;;;;;;14.94;55.91;101697.50;5003254;28;20080;-77
2021/09/30 10:14:15;;;;;;;5.10;0.90;;;;;;;15.00;55.67;101690.34;4999592;28;20042;-77
2021/09/30 10:16:47;;;;;;;3.28;0.88;;;;;;;14.96;56.33;101716.94;5003130;28;20042;-77
2021/09/30 10:19:12;;;;;;;4.10;1.30;;;;;;;15.01;56.26;101693.88;5001061;28;20042;-77
2021/09/30 10:21:39;;;;;;;3.72;1.20;;;;;;;15.06;56.83;101687.66;5003251;28;20565;-76
2021/09/30 10:24:13;;;;;;;5.40;1.33;;;;;;;15.20;56.62;101694.66;4999878;28;20390;-77
2021/09/30 10:26:57;;;;;;;6.25;1.20;;;;;;;15.36;57.20;101692.78;5000380;28;20485;-77
2021/09/30 10:29:38;;;;;;;4.97;0.90;;;;;;;15.46;55.98;101690.03;5000533;28;20037;-77
2021/09/30 10:32:05;;;;;;;9.15;1.17;;;;;;;15.40;53.68;101695.38;5000118;28;20512;-77
2021/09/30 10:34:34;;;;;;;5.93;1.30;;;;;;;15.26;55.23;101686.63;5002539;28;20040;-77
2021/09/30 10:37:20;;;;;;;6.32;1.40;;;;;;;15.57;54.46;101695.28;5000500;28;20030;-77
2021/09/30 10:40:19;;;;;;;7.13;1.20;;;;;;;15.94;53.70;101690.53;5002915;28;20511;-77
2021/09/30 10:42:57;;;;;;;4.28;0.90;;;;;;;16.04;53.27;101696.66;5006580;28;20034;-77
2021/09/30 10:45:25;;;;;;;12.32;1.25;;;;;;;16.15;52.12;101694.75;5000935;28;20074;-77
2021/09/30 10:47:50;;;;;;;4.68;1.40;;;;;;;16.26;52.04;101688.41;5002795;28;20034;-77
2021/09/30 10:50:17;;;;;;;2.35;0.80;;;;;;;16.38;51.64;101688.28;4999862;28;20485;-77
2021/09/30 10:52:50;;;;;;;4.85;0.95;;;;;;;16.31;51.41;101694.56;5002952;28;20046;-77
2021/09/30 10:55:21;;;;;;;7.93;1.30;;;;;;;16.35;51.42;101698.97;5000032;28;20046;-77
2021/09/30 10:57:49;;;;;;;8.27;1.13;;;;;;;16.35;52.43;101683.00;5002712;28;20433;-77
2021/09/30 11:00:17;;;;;;;1.98;0.60;;;;;;;16.29;52.19;101685.72;5000341;28;20045;-77
2021/09/30 11:03:10;;;;;;;3.65;0.93;;;;;;;16.29;50.77;101689.25;5000423;28;20038;-77
2021/09/30 11:05:42;;;;;;;3.90;0.70;;;;;;;16.36;51.42;101696.28;4999789;28;20056;-77
2021/09/30 11:08:24;;;;;;;;;;;;;;;16.36;50.07;101679.44;5002321;28;20042;-77
2021/09/30 11:11:05;;;;;;;4.40;0.90;;;;;;;16.58;51.22;101688.03;5002671;28;20048;-77
2021/09/30 11:13:39;;;;;;;6.45;0.77;;;;;;;16.10;50.09;101693.91;5000035;28;20042;-77
2021/09/30 11:16:14;;;;;;;6.35;0.88;;;;;;;16.12;49.92;101699.22;5005572;28;20092;-77
2021/09/30 11:18:41;;;;;;;2.67;0.60;;;;;;;16.20;50.66;101679.59;4999129;28;20559;-77
2021/09/30 11:21:29;;;;;;;7.38;1.85;;;;;;;16.59;50.10;101682.69;5013656;28;20046;-77
2021/09/30 11:24:08;;;;;;;5.15;1.02;;;;;;;16.79;50.10;101677.16;5000091;28;20070;-77
2021/09/30 11:26:54;;;;;;;4.95;1.80;;;;;;;17.02;49.53;101683.91;5000616;28;20030;-77
2021/09/30 11:29:19;;;;;;;5.97;1.02;;;;;;;16.92;50.15;101677.81;4991612;28;20042;-77
2021/09/30 11:31:49;;;;;;;3.70;1.00;;;;;;;16.76;50.24;101673.59;5005864;28;20044;-77
2021/09/30 11:34:19;;;;;;;3.13;0.73;;;;;;;16.73;50.15;101670.97;5003212;28;20038;-77
2021/09/30 11:36:45;;;;;;;3.97;0.90;;;;;;;17.05;48.33;101679.41;5005317;28;20041;-77
2021/09/30 11:39:10;;;;;;;5.25;0.70;;;;;;;17.12;49.29;101664.22;5003455;28;20041;-77
2021/09/30 11:41:39;;;;;;;3.78;1.27;;;;;;;17.61;48.30;101662.53;5004415;28;20034;-77
2021/09/30 11:44:05;;;;;;;4.10;0.70;;;;;;;17.52;49.02;101666.22;5002841;28;20076;-77
2021/09/30 11:46:34;;;;;;;5.30;0.73;;;;;;;17.34;49.72;101669.19;5005528;28;20076;-77
2021/09/30 11:49:02;;;;;;;3.35;1.00;;;;;;;17.11;49.69;101670.47;5006067;28;20550;-77
2021/09/30 11:51:42;;;;;;;3.95;0.90;;;;;;;17.04;49.09;101663.44;5005680;28;20033;-77
2021/09/30 11:54:13;;;;;;;4.82;1.17;;;;;;;17.21;48.59;101663.16;5004318;28;20428;-77
2021/09/30 11:56:40;;;;;;;4.35;0.63;;;;;;;17.13;47.20;101665.09;5003483;28;20116;-77
2021/09/30 11:59:07;;;;;;;7.22;0.98;;;;;;;16.57;47.69;101668.50;5008486;28;20481;-77
2021/09/30 12:01:37;;;;;;;3.95;0.80;;;;;;;16.40;48.12;101673.13;5003844;28;20435;-77
2021/09/30 12:04:04;;;;;;;4.28;1.00;;;;;;;16.74;47.98;101672.72;5004383;28;20370;-77
2021/09/30 12:06:56;;;;;;;5.57;0.90;;;;;;;17.66;46.01;101669.56;5003167;28;20057;-77
2021/09/30 12:09:22;;;;;;;4.50;1.00;;;;;;;17.52;46.65;101667.09;5002039;28;20130;-77
2021/09/30 12:11:52;;;;;;;2.65;0.93;;;;;;;17.38;45.61;101670.94;5004490;28;20457;-77
2021/09/30 12:14:18;;;;;;;3.42;1.10;;;;;;;17.99;44.59;101672.53;5003319;28;20038;-77
2021/09/30 12:16:58;;;;;;;5.03;1.52;;;;;;;18.64;43.85;101666.78;5004836;28;20068;-77
2021/09/30 12:19:35;;;;;;;5.15;1.00;;;;;;;19.24;42.12;101674.38;5004997;28;20489;-77
2021/09/30 12:22:02;;;;;;;4.32;1.05;;;;;;;19.42;41.29;101672.16;5000999;28;20038;-77
2021/09/30 12:24:29;;;;;;;7.63;1.58;;;;;;;19.61;40.98;101670.78;5005823;28;20030;-77
2021/09/30 12:26:57;;;;;;;3.25;1.10;;;;;;;19.84;40.93;101659.50;5002497;28;20057;-77
2021/09/30 12:29:23;;;;;;;3.88;1.10;;;;;;;19.96;41.44;101662.75;5002385;28;20053;-77
2021/09/30 12:32:06;;;;;;;6.63;1.35;;;;;;;20.04;41.38;101656.28;5006399;28;20056;-78
2021/09/30 12:34:32;;;;;;;5.43;1.00;;;;;;;20.01;40.80;101652.78;5004881;28;20057;-78
2021/09/30 12:36:57;;;;;;;5.13;1.10;;;;;;;19.96;39.44;101658.28;5005508;28;20026;-78
2021/09/30 12:39:25;;;;;;;8.40;1.38;;;;;;;20.10;38.59;101652.56;5003988;28;20041;-77
2021/09/30 12:41:51;;;;;;;3.00;0.80;;;;;;;20.31;38.34;101653.75;5005700;28;20026;-77
2021/09/30 12:44:17;;;;;;;3.58;0.90;;;;;;;20.96;38.46;101650.91;5002673;28;20043;-77
2021/09/30 12:46:44;;;;;;;5.05;1.20;;;;;;;21.05;37.80;101654.22;5005939;28;20041;-77
2021/09/30 12:49:10;;;;;;;4.75;0.95;;;;;;;21.20;37.36;101656.41;5002724;28;20117;-77
2021/09/30 12:51:35;;;;;;;4.00;1.00;;;;;;;21.23;37.38;101642.88;5006330;28;20069;-78
2021/09/30 12:54:00;;;;;;;6.35;1.40;;;;;;;21.63;37.43;101636.19;5002316;28;20037;-78
2021/09/30 12:56:32;;;;;;;4.38;0.88;;;;;;;21.65;36.21;101639.72;5005964;28;20099;-78
2021/09/30 12:59:13;;;;;;;4.88;0.85;;;;;;;20.91;36.88;101634.06;5002547;28;20567;-77
2021/09/30 13:01:40;;;;;;;4.35;0.98;;;;;;;20.07;39.24;101639.25;5002969;28;20129;-77
2021/09/30 13:04:24;;;;;;;1.38;0.52;;;;;;;19.24;40.09;101641.38;5003770;28;20124;-78
2021/09/30 13:06:55;;;;;;;3.63;0.68;;;;;;;18.44;42.01;101648.50;5006108;28;20042;-77
2021/09/30 13:09:34;;;;;;;2.57;0.80;;;;;;;18.76;41.68;101647.84;5002213;28;20540;-78
2021/09/30 13:12:15;;;;;;;2.20;0.60;;;;;;;19.54;40.82;101639.72;5003484;28;20332;-77
2021/09/30 13:14:48;;;;;;;2.37;0.90;;;;;;;19.85;40.30;101639.81;5002534;28;20042;-78
2021/09/30 13:17:13;;;;;;;2.58;0.82;;;;;;;20.05;38.78;101631.22;5002694;28;20084;-78
2021/09/30 13:19:52;;;;;;;3.53;0.80;;;;;;;20.42;38.39;101630.16;5006680;28;20066;-77
2021/09/30 13:22:27;;;;;;;3.67;1.00;;;;;;;20.78;36.25;101628.22;5003466;28;20026;-78
2021/09/30 13:24:54;;;;;;;3.17;0.80;;;;;;;21.12;35.37;101632.50;5003922;28;20500;-78
2021/09/30 13:27:22;;;;;;;6.32;1.05;;;;;;;21.25;34.99;101619.56;5003722;28;20038;-78
2021/09/30 13:29:48;;;;;;;4.68;0.98;;;;;;;21.76;33.68;101632.16;5004000;28;20038;-78
2021/09/30 13:32:15;;;;;;;6.22;1.00;;;;;;;22.10;33.29;101622.88;5003492;28;20096;-77
2021/09/30 13:34:41;;;;;;;5.07;0.82;;;;;;;22.40;32.93;101614.59;5004191;28;20030;-77
2021/09/30 13:37:06;;;;;;;4.55;1.20;;;;;;;21.97;33.63;101614.38;5002816;28;20042;-78
2021/09/30 13:39:32;;;;;;;3.83;1.20;;;;;;;22.27;32.68;101615.09;5005098;28;20056;-77
2021/09/30 13:41:57;;;;;;;2.30;0.80;;;;;;;22.23;33.50;101613.44;5002027;28;20041;-77
2021/09/30 13:44:23;;;;;;;3.13;1.00;;;;;;;22.71;31.61;101615.16;5005672;28;20067;-78
2021/09/30 13:46:48;;;;;;;5.03;1.55;;;;;;;22.66;31.31;101619.88;5003084;28;20077;-80
2021/09/30 13:49:16;;;;;;;4.90;0.80;;;;;;;22.09;32.04;101618.44;5037452;28;20022;-80
2021/09/30 13:51:42;;;;;;;2.85;1.00;;;;;;;20.81;34.34;101627.25;5003984;28;20042;-80
2021/09/30 13:54:08;;;;;;;4.07;1.00;;;;;;;19.53;36.77;101626.38;5002544;28;20023;-80
2021/09/30 13:56:33;;;;;;;5.30;1.00;;;;;;;18.73;38.20;101629.16;5005030;28;20042;-80
2021/09/30 13:58:59;;;;;;;3.45;0.80;;;;;;;18.13;39.62;101637.53;5002762;28;20097;-80
2021/09/30 14:01:24;;;;;;;4.97;0.90;;;;;;;17.72;40.97;101631.19;5002769;28;20568;-80
2021/09/30 14:03:50;;;;;;;5.82;1.00;;;;;;;18.10;40.75;101637.59;5002313;28;20125;-79
2021/09/30 14:06:17;;;;;;;3.78;0.98;;;;;;;18.91;39.33;101627.00;5001705;28;20061;-79
2021/09/30 14:08:43;;;;;;;5.43;1.17;;;;;;;18.37;40.72;101634.38;4999919;28;20117;-80
2021/09/30 14:11:13;;;;;;;5.95;0.93;;;;;;;17.92;41.10;101629.06;5020293;28;20049;-80
2021/09/30 14:13:41;;;;;;;3.83;1.10;;;;;;;18.95;39.54;101626.03;5005367;28;20037;-78
2021/09/30 14:16:07;;;;;;;3.08;1.00;;;;;;;19.79;38.34;101623.03;5006768;28;20034;-79